createdAt,value
2022-12-02T00:00:50.979Z,14.97
2022-12-02T00:03:38.560Z,15.23
2022-12-02T00:06:33.205Z,15.80
2022-12-02T00:09:32.115Z,15.17
2022-12-02T00:12:24.989Z,15.37
2022-12-02T00:15:37.161Z,15.90
2022-12-02T00:18:24.774Z,16.57
2022-12-02T00:21:11.721Z,17.13
2022-12-02T00:23:58.641Z,16.07
2022-12-02T00:26:45.968Z,17.33
2022-12-02T00:29:32.896Z,18.10
2022-12-02T00:32:19.838Z,16.13
2022-12-02T00:35:07.492Z,16.63
2022-12-02T00:37:54.755Z,17.90
2022-12-02T00:40:41.986Z,17.03
2022-12-02T00:43:47.501Z,18.00
2022-12-02T00:46:35.500Z,18.37
2022-12-02T00:49:22.529Z,18.50
2022-12-02T00:52:09.936Z,18.23
2022-12-02T00:54:57.746Z,18.77
2022-12-02T00:57:44.787Z,19.63
2022-12-02T01:00:32.414Z,19.20
2022-12-02T01:03:19.487Z,19.23
2022-12-02T01:06:06.723Z,19.90
2022-12-02T01:08:53.668Z,20.63
2022-12-02T01:11:40.750Z,20.47
2022-12-02T01:14:27.991Z,19.40
2022-12-02T01:17:14.943Z,19.63
2022-12-02T01:20:01.941Z,18.80
2022-12-02T01:22:48.985Z,20.13
2022-12-02T01:25:36.533Z,20.33
2022-12-02T01:28:23.462Z,20.03
2022-12-02T01:31:10.402Z,20.63
2022-12-02T01:33:57.537Z,20.47
2022-12-02T01:36:44.452Z,20.30
2022-12-02T01:39:31.404Z,21.13
2022-12-02T01:42:18.492Z,20.00
2022-12-02T01:45:07.262Z,19.60
2022-12-02T01:47:54.706Z,20.40
2022-12-02T01:50:41.755Z,20.27
2022-12-02T01:53:29.030Z,19.37
2022-12-02T01:56:16.347Z,20.80
2022-12-02T01:59:03.436Z,21.67
2022-12-02T02:01:50.372Z,20.77
2022-12-02T02:04:37.313Z,21.73
2022-12-02T02:07:24.751Z,21.40
2022-12-02T02:10:12.203Z,21.03
2022-12-02T02:12:59.939Z,21.50
2022-12-02T02:15:46.967Z,20.90
2022-12-02T02:18:34.759Z,21.90
2022-12-02T02:21:27.097Z,21.57
2022-12-02T02:24:14.239Z,20.77
2022-12-02T02:27:01.315Z,20.97
2022-12-02T02:29:48.921Z,21.17
2022-12-02T02:32:36.457Z,22.67
2022-12-02T02:35:24.279Z,20.10
2022-12-02T02:38:15.701Z,20.73
2022-12-02T02:41:04.715Z,20.97
2022-12-02T02:43:51.925Z,20.10
2022-12-02T02:46:38.995Z,20.30
2022-12-02T02:49:26.200Z,19.43
2022-12-02T02:52:13.204Z,19.17
2022-12-02T02:55:00.196Z,19.27
2022-12-02T02:57:48.759Z,19.30
2022-12-02T03:00:36.606Z,19.67
2022-12-02T03:03:27.228Z,19.30
2022-12-02T03:06:15.339Z,19.20
2022-12-02T03:09:04.764Z,20.40
2022-12-02T03:11:53.721Z,20.80
2022-12-02T03:14:41.028Z,18.97
2022-12-02T03:17:28.293Z,19.77
2022-12-02T03:20:16.188Z,18.97
2022-12-02T03:23:03.196Z,20.30
2022-12-02T03:25:50.288Z,17.87
2022-12-02T03:28:37.237Z,19.47
2022-12-02T03:31:25.075Z,20.73
2022-12-02T03:34:12.775Z,19.10
2022-12-02T03:37:00.074Z,19.27
2022-12-02T03:39:47.012Z,20.80
2022-12-02T03:42:34.295Z,18.97
2022-12-02T03:45:21.318Z,19.50
2022-12-02T03:48:08.471Z,18.73
2022-12-02T03:50:56.491Z,19.07
2022-12-02T03:53:44.500Z,19.10
2022-12-02T03:56:37.060Z,19.90
2022-12-02T03:59:27.915Z,19.60
2022-12-02T04:02:15.036Z,19.57
2022-12-02T04:05:02.161Z,19.17
2022-12-02T04:07:49.139Z,19.20
2022-12-02T04:10:36.058Z,19.13
2022-12-02T04:13:22.983Z,20.20
2022-12-02T04:16:10.107Z,19.60
2022-12-02T04:18:57.113Z,18.37
2022-12-02T04:21:44.085Z,19.27
2022-12-02T04:24:31.076Z,19.23
2022-12-02T04:27:18.160Z,19.90
2022-12-02T04:30:06.001Z,19.37
2022-12-02T04:32:53.131Z,19.17
2022-12-02T04:35:40.109Z,19.70
2022-12-02T04:38:27.127Z,18.83
2022-12-02T04:41:14.041Z,18.63
2022-12-02T04:44:00.959Z,18.60
2022-12-02T04:46:47.904Z,18.97
2022-12-02T04:49:34.860Z,19.10
2022-12-02T04:52:21.805Z,18.17
2022-12-02T04:55:09.114Z,18.20
2022-12-02T04:57:56.086Z,18.47
2022-12-02T05:00:43.906Z,18.33
2022-12-02T05:03:30.906Z,19.20
2022-12-02T05:06:17.896Z,19.37
2022-12-02T05:09:04.832Z,19.47
2022-12-02T05:11:51.748Z,19.00
2022-12-02T05:14:38.689Z,19.80
2022-12-02T05:17:25.672Z,19.67
2022-12-02T05:20:13.516Z,20.23
2022-12-02T05:23:00.489Z,19.53
2022-12-02T05:25:47.418Z,19.80
2022-12-02T05:28:34.322Z,20.00
2022-12-02T05:31:21.319Z,19.03
2022-12-02T05:34:08.341Z,19.43
2022-12-02T05:36:55.375Z,18.97
2022-12-02T05:39:42.288Z,20.07
2022-12-02T05:42:29.271Z,20.43
2022-12-02T05:45:22.921Z,19.80
2022-12-02T05:48:12.329Z,18.90
2022-12-02T05:50:59.289Z,19.03
2022-12-02T05:53:49.467Z,19.47
2022-12-02T05:56:36.478Z,19.97
2022-12-02T05:59:23.854Z,21.53
2022-12-02T06:02:29.217Z,20.07
2022-12-02T06:05:36.971Z,20.30
2022-12-02T06:08:27.681Z,20.80
2022-12-02T06:11:30.668Z,20.03
2022-12-02T06:14:21.613Z,20.47
2022-12-02T06:17:15.333Z,20.63
2022-12-02T06:20:05.110Z,21.50
2022-12-02T06:22:52.142Z,20.53
2022-12-02T06:25:39.247Z,20.23
2022-12-02T06:28:29.641Z,19.43
2022-12-02T06:31:24.805Z,20.00
2022-12-02T06:34:26.714Z,19.37
2022-12-02T06:37:21.241Z,19.77
2022-12-02T06:40:30.579Z,20.93
2022-12-02T06:43:26.899Z,19.93
2022-12-02T06:46:20.318Z,20.83
2022-12-02T06:49:38.004Z,20.60
2022-12-02T06:52:25.047Z,19.17
2022-12-02T06:55:35.707Z,20.70
2022-12-02T06:58:39.538Z,19.67
2022-12-02T07:01:38.628Z,20.17
2022-12-02T07:04:41.503Z,18.90
2022-12-02T07:07:31.300Z,20.93
2022-12-02T07:10:30.279Z,19.43
2022-12-02T07:13:19.725Z,20.67
2022-12-02T07:16:33.582Z,21.00
2022-12-02T07:19:23.833Z,22.33
2022-12-02T07:22:20.770Z,22.57
2022-12-02T07:25:07.629Z,23.73
2022-12-02T07:27:54.625Z,21.60
2022-12-02T07:30:42.852Z,22.07
2022-12-02T07:33:30.314Z,22.40
2022-12-02T07:36:17.633Z,21.73
2022-12-02T07:39:06.132Z,23.23
2022-12-02T07:41:54.755Z,22.70
2022-12-02T07:44:42.070Z,22.57
2022-12-02T07:47:29.070Z,23.17
2022-12-02T07:50:16.763Z,23.40
2022-12-02T07:53:03.766Z,22.70
2022-12-02T07:55:50.725Z,23.73
2022-12-02T07:59:10.062Z,23.73
2022-12-02T08:01:45.525Z,22.60
2022-12-02T08:04:32.732Z,23.07
2022-12-02T08:07:19.712Z,22.00
2022-12-02T08:10:07.150Z,22.73
2022-12-02T08:12:54.163Z,23.13
2022-12-02T08:15:41.238Z,21.33
2022-12-02T08:18:28.178Z,22.47
2022-12-02T08:21:15.152Z,22.03
2022-12-02T08:24:03.430Z,22.10
2022-12-02T08:26:50.380Z,21.60
2022-12-02T08:29:37.331Z,21.93
2022-12-02T08:32:24.336Z,21.00
2022-12-02T08:35:12.925Z,22.43
2022-12-02T08:37:59.868Z,21.67
2022-12-02T08:40:46.779Z,22.27
2022-12-02T08:43:33.793Z,22.30
2022-12-02T08:46:20.769Z,22.07
2022-12-02T08:49:07.829Z,22.27
2022-12-02T08:51:54.779Z,22.03
2022-12-02T08:54:43.718Z,20.50
2022-12-02T08:57:30.625Z,23.03
2022-12-02T09:00:17.821Z,23.73
2022-12-02T09:03:06.417Z,21.83
2022-12-02T09:05:53.457Z,22.03
2022-12-02T09:08:40.419Z,22.47
2022-12-02T09:11:27.431Z,21.13
2022-12-02T09:14:14.361Z,20.73
2022-12-02T09:17:01.339Z,19.93
2022-12-02T09:19:48.260Z,21.43
2022-12-02T09:22:35.258Z,19.77
2022-12-02T09:25:22.430Z,20.07
2022-12-02T09:28:09.365Z,20.27
2022-12-02T09:30:56.350Z,20.87
2022-12-02T09:33:43.356Z,20.33
2022-12-02T09:36:30.319Z,21.73
2022-12-02T09:39:17.326Z,18.50
2022-12-02T09:42:04.468Z,19.93
2022-12-02T09:44:52.341Z,19.93
2022-12-02T09:47:40.608Z,19.17
2022-12-02T09:50:27.847Z,18.57
2022-12-02T09:53:18.675Z,19.13
2022-12-02T09:56:10.950Z,19.03
2022-12-02T09:58:58.124Z,18.90
2022-12-02T10:01:48.496Z,19.10
2022-12-02T10:04:35.664Z,20.47
2022-12-02T10:07:22.642Z,19.27
2022-12-02T10:10:15.305Z,17.97
2022-12-02T10:13:07.875Z,18.60
2022-12-02T10:15:55.390Z,17.67
2022-12-02T10:18:42.899Z,19.23
2022-12-02T10:21:29.992Z,18.33
2022-12-02T10:24:34.397Z,19.77
2022-12-02T10:27:30.183Z,18.77
2022-12-02T10:30:20.216Z,21.40
2022-12-02T10:33:08.261Z,20.63
2022-12-02T10:35:55.919Z,20.77
2022-12-02T10:38:44.920Z,19.67
2022-12-02T10:41:31.837Z,20.03
2022-12-02T10:44:20.983Z,20.03
2022-12-02T10:47:26.499Z,21.23
2022-12-02T10:50:22.127Z,20.77
2022-12-02T10:53:15.868Z,20.97
2022-12-02T10:56:02.810Z,21.50
2022-12-02T10:58:51.241Z,20.03
2022-12-02T11:01:40.851Z,21.27
2022-12-02T11:04:29.644Z,22.03
2022-12-02T11:07:18.139Z,21.50
2022-12-02T11:10:05.932Z,21.37
2022-12-02T11:12:52.769Z,20.77
2022-12-02T11:15:44.985Z,20.90
2022-12-02T11:18:31.820Z,21.83
2022-12-02T11:21:27.937Z,21.77
2022-12-02T11:24:23.848Z,19.67
2022-12-02T11:27:18.279Z,19.57
2022-12-02T11:30:06.951Z,18.90
2022-12-02T11:32:53.938Z,20.07
2022-12-02T11:36:04.257Z,20.17
2022-12-02T11:38:51.105Z,20.57
2022-12-02T11:41:48.680Z,19.17
2022-12-02T11:44:35.684Z,19.77
2022-12-02T11:47:22.505Z,20.47
2022-12-02T11:50:15.289Z,19.30
2022-12-02T11:53:10.526Z,18.53
2022-12-02T11:55:59.513Z,18.07
2022-12-02T11:58:46.472Z,17.33
2022-12-02T12:01:33.386Z,17.93
2022-12-02T12:04:29.827Z,17.17
2022-12-02T12:07:16.756Z,16.83
2022-12-02T12:10:03.853Z,17.13
2022-12-02T12:13:20.001Z,16.43
2022-12-02T12:16:06.962Z,17.80
2022-12-02T12:18:54.500Z,18.17
2022-12-02T12:22:00.270Z,18.37
2022-12-02T12:24:47.210Z,17.97
2022-12-02T12:27:36.842Z,18.10
2022-12-02T12:30:24.170Z,17.47
2022-12-02T12:33:11.188Z,18.87
2022-12-02T12:35:59.094Z,16.63
2022-12-02T12:38:46.034Z,18.03
2022-12-02T12:44:40.112Z,17.47
2022-12-02T12:47:27.053Z,17.37
2022-12-02T12:50:14.066Z,17.00
2022-12-02T12:53:01.077Z,17.53
2022-12-02T12:55:48.150Z,16.90
2022-12-02T12:58:35.101Z,16.53
2022-12-02T13:01:25.052Z,16.40
2022-12-02T13:04:12.709Z,16.77
2022-12-02T13:06:59.660Z,15.60
2022-12-02T13:09:46.570Z,15.87
2022-12-02T13:12:33.520Z,16.53
2022-12-02T13:15:20.504Z,18.03
2022-12-02T13:18:07.504Z,16.17
2022-12-02T13:20:54.471Z,14.90
2022-12-02T13:23:41.503Z,14.40
2022-12-02T13:26:28.429Z,14.83
2022-12-02T13:29:17.149Z,13.43
2022-12-02T13:32:04.244Z,13.83
2022-12-02T13:34:51.847Z,13.87
2022-12-02T13:37:39.014Z,13.93
2022-12-02T13:40:26.024Z,14.57
2022-12-02T13:43:12.973Z,14.77
2022-12-02T13:46:00.185Z,15.00
2022-12-02T13:48:47.195Z,14.73
2022-12-02T13:51:34.170Z,14.00
2022-12-02T13:54:21.173Z,14.70
2022-12-02T13:57:08.170Z,15.67
2022-12-02T13:59:55.133Z,14.47
2022-12-02T14:02:42.424Z,13.40
2022-12-02T14:05:29.377Z,14.77
2022-12-02T14:08:16.386Z,14.87
2022-12-02T14:11:03.412Z,15.30
2022-12-02T14:13:50.652Z,14.63
2022-12-02T14:16:37.645Z,15.13
2022-12-02T14:19:24.576Z,14.77
2022-12-02T14:22:11.561Z,15.23
2022-12-02T14:24:59.107Z,15.17
2022-12-02T14:27:46.093Z,14.97
2022-12-02T14:30:33.240Z,17.30
2022-12-02T14:33:20.169Z,16.40
2022-12-02T14:36:07.392Z,15.60
2022-12-02T14:38:54.331Z,14.37
2022-12-02T14:41:41.355Z,15.63
2022-12-02T14:44:28.689Z,15.40
2022-12-02T14:47:15.624Z,15.67
2022-12-02T14:50:02.752Z,15.50
2022-12-02T14:52:49.780Z,15.73
2022-12-02T14:55:38.459Z,15.93
2022-12-02T14:58:25.396Z,16.13
2022-12-02T15:01:12.363Z,16.33
2022-12-02T15:03:59.325Z,16.90
2022-12-02T15:06:46.288Z,15.53
2022-12-02T15:09:33.236Z,15.13
2022-12-02T15:12:20.362Z,15.63
2022-12-02T15:15:36.786Z,15.90
2022-12-02T15:18:15.374Z,16.37
2022-12-02T15:21:02.488Z,15.33
2022-12-02T15:23:50.470Z,17.00
2022-12-02T15:26:37.522Z,15.77
2022-12-02T15:29:24.554Z,16.87
2022-12-02T15:32:17.376Z,16.87
2022-12-02T15:35:08.155Z,16.00
2022-12-02T15:37:55.078Z,15.83
2022-12-02T15:40:42.006Z,16.20
2022-12-02T15:43:28.941Z,15.97
2022-12-02T15:46:15.903Z,15.87
2022-12-02T15:49:02.908Z,16.47
2022-12-02T15:51:49.878Z,16.23
2022-12-02T15:54:36.834Z,16.10
2022-12-02T15:57:23.781Z,16.90
2022-12-02T16:00:11.183Z,17.00
2022-12-02T16:02:58.179Z,17.30
2022-12-02T16:05:45.164Z,16.50
2022-12-02T16:08:33.197Z,16.80
2022-12-02T16:11:20.196Z,15.63
2022-12-02T16:14:07.123Z,15.27
2022-12-02T16:16:54.090Z,16.00
2022-12-02T16:19:41.100Z,15.83
2022-12-02T16:22:28.077Z,15.40
2022-12-02T16:25:15.101Z,15.63
2022-12-02T16:28:02.038Z,15.73
2022-12-02T16:30:48.984Z,16.13
2022-12-02T16:33:35.926Z,15.70
2022-12-02T16:36:23.144Z,15.10
2022-12-02T16:39:10.075Z,16.67
2022-12-02T16:41:57.000Z,16.10
2022-12-02T16:44:44.470Z,15.33
2022-12-02T16:47:31.434Z,16.70
2022-12-02T16:50:18.525Z,16.60
2022-12-02T16:53:05.833Z,17.07
2022-12-02T16:55:52.856Z,17.17
2022-12-02T16:58:39.886Z,16.33
2022-12-02T17:01:27.308Z,15.97
2022-12-02T17:04:14.391Z,16.50
2022-12-02T17:07:01.341Z,16.67
2022-12-02T17:09:48.346Z,17.20
2022-12-02T17:12:35.400Z,18.60
2022-12-02T17:15:22.321Z,17.77
2022-12-02T17:18:09.230Z,18.47
2022-12-02T17:20:56.206Z,19.83
2022-12-02T17:23:43.137Z,19.23
2022-12-02T17:26:30.067Z,17.70
2022-12-02T17:29:18.187Z,16.37
2022-12-02T17:32:05.329Z,17.00
2022-12-02T17:34:52.541Z,17.60
2022-12-02T17:37:39.891Z,19.30
2022-12-02T17:40:26.844Z,19.33
2022-12-02T17:43:13.832Z,18.33
2022-12-02T17:46:00.793Z,19.43
2022-12-02T17:48:48.950Z,18.53
2022-12-02T17:51:35.881Z,17.10
2022-12-02T17:54:22.817Z,19.33
2022-12-02T17:57:09.772Z,19.30
2022-12-02T17:59:56.710Z,18.10
2022-12-02T18:02:43.767Z,18.07
2022-12-02T18:05:30.928Z,18.20
2022-12-02T18:08:20.139Z,17.97
2022-12-02T18:11:07.209Z,17.40
2022-12-02T18:13:57.876Z,17.37
2022-12-02T18:16:48.910Z,17.60
2022-12-02T18:19:35.897Z,17.57
2022-12-02T18:22:22.959Z,18.83
2022-12-02T18:25:09.901Z,18.07
2022-12-02T18:27:56.942Z,17.57
2022-12-02T18:30:43.933Z,17.43
2022-12-02T18:33:31.388Z,18.90
2022-12-02T18:36:18.322Z,18.37
2022-12-02T18:39:05.282Z,18.90
2022-12-02T18:41:52.207Z,16.90
2022-12-02T18:44:39.160Z,18.03
2022-12-02T18:47:26.078Z,18.00
2022-12-02T18:50:13.606Z,16.73
2022-12-02T18:53:00.708Z,16.57
2022-12-02T18:55:47.646Z,16.77
2022-12-02T18:58:34.588Z,17.57
2022-12-02T19:01:21.953Z,17.00
2022-12-02T19:04:09.536Z,16.03
2022-12-02T19:06:56.506Z,16.13
2022-12-02T19:09:46.384Z,17.53
2022-12-02T19:12:36.173Z,17.13
2022-12-02T19:15:23.168Z,16.67
2022-12-02T19:18:10.497Z,17.53
2022-12-02T19:20:57.436Z,18.47
2022-12-02T19:23:44.416Z,18.53
2022-12-02T19:26:31.361Z,16.83
2022-12-02T19:29:18.338Z,16.03
2022-12-02T19:32:05.366Z,16.57
2022-12-02T19:34:52.512Z,17.07
2022-12-02T19:37:39.662Z,16.40
2022-12-02T19:40:32.917Z,17.13
2022-12-02T19:43:22.778Z,17.53
2022-12-02T19:46:09.798Z,16.80
2022-12-02T19:48:56.753Z,18.07
2022-12-02T19:51:43.763Z,17.73
2022-12-02T19:54:30.755Z,17.43
2022-12-02T19:57:17.705Z,18.10
2022-12-02T20:00:06.705Z,18.13
2022-12-02T20:02:58.790Z,17.23
2022-12-02T20:05:45.799Z,18.30
2022-12-02T20:08:32.762Z,17.30
2022-12-02T20:11:19.763Z,17.53
2022-12-02T20:14:07.021Z,16.57
2022-12-02T20:16:54.300Z,17.37
2022-12-02T20:19:41.231Z,17.83
2022-12-02T20:22:28.176Z,17.03
2022-12-02T20:25:15.117Z,18.27
2022-12-02T20:28:02.054Z,16.83
2022-12-02T20:30:49.105Z,15.77
2022-12-02T20:33:36.181Z,16.87
2022-12-02T20:36:23.208Z,17.10
2022-12-02T20:39:10.414Z,17.30
2022-12-02T20:41:57.345Z,16.37
2022-12-02T20:44:49.389Z,17.13
2022-12-02T20:47:39.286Z,16.53
2022-12-02T20:50:26.279Z,16.63
2022-12-02T20:53:13.242Z,16.40
2022-12-02T20:56:00.592Z,16.87
2022-12-02T20:58:49.287Z,16.90
2022-12-02T21:01:36.378Z,16.63
2022-12-02T21:04:23.444Z,16.87
2022-12-02T21:07:10.397Z,18.13
2022-12-02T21:09:57.413Z,17.33
2022-12-02T21:12:44.438Z,16.77
2022-12-02T21:15:32.438Z,15.67
2022-12-02T21:18:19.753Z,17.30
2022-12-02T21:21:06.672Z,17.23
2022-12-02T21:23:55.338Z,16.40
2022-12-02T21:26:45.684Z,16.47
2022-12-02T21:29:32.639Z,16.47
2022-12-02T21:32:19.577Z,16.43
2022-12-02T21:35:09.790Z,16.37
2022-12-02T21:37:58.507Z,16.87
2022-12-02T21:40:45.418Z,17.50
2022-12-02T21:43:32.372Z,16.80
2022-12-02T21:46:19.341Z,16.90
2022-12-02T21:49:06.279Z,17.77
2022-12-02T21:51:53.417Z,16.53
2022-12-02T21:54:40.428Z,16.50
2022-12-02T21:57:27.388Z,17.37
2022-12-02T22:00:15.288Z,17.07
2022-12-02T22:03:02.736Z,15.53
2022-12-02T22:05:49.679Z,17.10
2022-12-02T22:08:36.621Z,16.73
2022-12-02T22:11:24.269Z,15.93
2022-12-02T22:14:11.210Z,15.90
2022-12-02T22:16:58.230Z,16.10
2022-12-02T22:19:45.529Z,16.53
2022-12-02T22:22:32.848Z,16.67
2022-12-02T22:25:19.778Z,16.20
2022-12-02T22:28:06.728Z,14.97
2022-12-02T22:30:53.665Z,15.60
2022-12-02T22:33:40.657Z,14.83
2022-12-02T22:36:27.626Z,14.67
2022-12-02T22:39:14.735Z,14.43
2022-12-02T22:42:01.715Z,15.50
2022-12-02T22:44:48.710Z,14.13
2022-12-02T22:47:35.625Z,14.37
2022-12-02T22:50:22.629Z,15.23
2022-12-02T22:53:09.578Z,13.83
2022-12-02T22:55:56.535Z,14.97
2022-12-02T22:58:43.461Z,15.47
2022-12-02T23:01:31.391Z,15.23
2022-12-02T23:04:18.434Z,15.53
2022-12-02T23:07:05.546Z,15.37
2022-12-02T23:09:52.453Z,15.93
2022-12-02T23:12:39.430Z,16.27
2022-12-02T23:15:41.926Z,16.33
2022-12-02T23:18:29.084Z,16.03
2022-12-02T23:21:16.020Z,16.13
2022-12-02T23:24:03.168Z,16.33
2022-12-02T23:26:50.081Z,15.70
2022-12-02T23:29:37.608Z,15.97
2022-12-02T23:32:24.533Z,16.97
2022-12-02T23:35:11.524Z,16.97
2022-12-02T23:37:58.498Z,15.43
2022-12-02T23:40:45.468Z,15.53
2022-12-02T23:43:32.408Z,15.70
2022-12-02T23:46:19.429Z,15.30
2022-12-02T23:49:06.374Z,16.03
2022-12-02T23:51:53.443Z,15.13
2022-12-02T23:54:40.407Z,16.63
2022-12-02T23:57:27.328Z,14.70
